sensor_id;sensor_type;location;lat;lon;timestamp;P1;durP1;ratioP1;P2;durP2;ratioP2
3911;SDS011;1971;51.778;10.330;2023-02-24T00:02:12;6.10;;;2.50;;
3911;SDS011;1971;51.778;10.330;2023-02-24T00:04:45;6.20;;;3.00;;
3911;SDS011;1971;51.778;10.330;2023-02-24T00:07:17;9.37;;;3.83;;
3911;SDS011;1971;51.778;10.330;2023-02-24T00:09:48;14.00;;;2.83;;
3911;SDS011;1971;51.778;10.330;2023-02-24T00:12:20;10.33;;;2.67;;
3911;SDS011;1971;51.778;10.330;2023-02-24T00:14:50;5.03;;;2.43;;
3911;SDS011;1971;51.778;10.330;2023-02-24T00:17:20;5.87;;;2.50;;
3911;SDS011;1971;51.778;10.330;2023-02-24T00:19:53;4.37;;;2.10;;
3911;SDS011;1971;51.778;10.330;2023-02-24T00:22:23;5.50;;;1.93;;
3911;SDS011;1971;51.778;10.330;2023-02-24T00:24:52;7.07;;;2.03;;
3911;SDS011;1971;51.778;10.330;2023-02-24T00:27:29;4.73;;;2.17;;
3911;SDS011;1971;51.778;10.330;2023-02-24T00:29:59;9.83;;;2.40;;
3911;SDS011;1971;51.778;10.330;2023-02-24T00:32:31;3.60;;;1.73;;
3911;SDS011;1971;51.778;10.330;2023-02-24T00:35:03;3.70;;;1.80;;
3911;SDS011;1971;51.778;10.330;2023-02-24T00:37:34;11.40;;;2.10;;
3911;SDS011;1971;51.778;10.330;2023-02-24T00:40:05;4.07;;;1.80;;
3911;SDS011;1971;51.778;10.330;2023-02-24T00:42:39;3.87;;;2.10;;
3911;SDS011;1971;51.778;10.330;2023-02-24T00:45:09;4.10;;;1.73;;
3911;SDS011;1971;51.778;10.330;2023-02-24T00:47:42;7.33;;;1.83;;
3911;SDS011;1971;51.778;10.330;2023-02-24T00:50:11;4.73;;;1.70;;
3911;SDS011;1971;51.778;10.330;2023-02-24T00:52:42;3.60;;;1.50;;
3911;SDS011;1971;51.778;10.330;2023-02-24T00:55:12;8.30;;;2.10;;
3911;SDS011;1971;51.778;10.330;2023-02-24T00:57:45;4.43;;;1.80;;
3911;SDS011;1971;51.778;10.330;2023-02-24T01:00:16;2.67;;;1.60;;
3911;SDS011;1971;51.778;10.330;2023-02-24T01:02:48;3.30;;;1.40;;
3911;SDS011;1971;51.778;10.330;2023-02-24T01:05:18;6.03;;;1.83;;
3911;SDS011;1971;51.778;10.330;2023-02-24T01:07:49;3.23;;;1.20;;
3911;SDS011;1971;51.778;10.330;2023-02-24T01:10:20;3.80;;;1.90;;
3911;SDS011;1971;51.778;10.330;2023-02-24T01:12:55;2.20;;;1.47;;
3911;SDS011;1971;51.778;10.330;2023-02-24T01:15:22;3.70;;;1.40;;
3911;SDS011;1971;51.778;10.330;2023-02-24T01:17:54;3.17;;;1.70;;
3911;SDS011;1971;51.778;10.330;2023-02-24T01:20:24;8.47;;;2.07;;
3911;SDS011;1971;51.778;10.330;2023-02-24T01:22:55;4.23;;;1.70;;
3911;SDS011;1971;51.778;10.330;2023-02-24T01:25:26;4.50;;;1.73;;
3911;SDS011;1971;51.778;10.330;2023-02-24T01:27:59;4.33;;;1.50;;
3911;SDS011;1971;51.778;10.330;2023-02-24T01:30:29;5.37;;;1.83;;
3911;SDS011;1971;51.778;10.330;2023-02-24T01:33:00;6.83;;;2.70;;
3911;SDS011;1971;51.778;10.330;2023-02-24T01:35:30;5.87;;;2.20;;
3911;SDS011;1971;51.778;10.330;2023-02-24T01:38:00;8.70;;;2.50;;
3911;SDS011;1971;51.778;10.330;2023-02-24T01:40:32;12.73;;;3.83;;
3911;SDS011;1971;51.778;10.330;2023-02-24T01:43:05;5.13;;;2.03;;
3911;SDS011;1971;51.778;10.330;2023-02-24T01:45:36;7.17;;;2.30;;
3911;SDS011;1971;51.778;10.330;2023-02-24T01:48:08;6.93;;;2.07;;
3911;SDS011;1971;51.778;10.330;2023-02-24T01:50:42;6.30;;;2.10;;
3911;SDS011;1971;51.778;10.330;2023-02-24T01:53:13;3.90;;;2.10;;
3911;SDS011;1971;51.778;10.330;2023-02-24T01:55:45;5.07;;;2.03;;
3911;SDS011;1971;51.778;10.330;2023-02-24T01:58:21;7.33;;;2.70;;
3911;SDS011;1971;51.778;10.330;2023-02-24T02:00:54;7.93;;;2.30;;
3911;SDS011;1971;51.778;10.330;2023-02-24T02:03:26;6.37;;;2.13;;
3911;SDS011;1971;51.778;10.330;2023-02-24T02:05:59;6.43;;;2.63;;
3911;SDS011;1971;51.778;10.330;2023-02-24T02:08:31;4.17;;;2.03;;
3911;SDS011;1971;51.778;10.330;2023-02-24T02:11:05;8.20;;;2.70;;
3911;SDS011;1971;51.778;10.330;2023-02-24T02:13:40;6.53;;;2.43;;
3911;SDS011;1971;51.778;10.330;2023-02-24T02:16:26;7.87;;;2.47;;
3911;SDS011;1971;51.778;10.330;2023-02-24T02:19:13;6.33;;;2.07;;
3911;SDS011;1971;51.778;10.330;2023-02-24T02:22:00;4.40;;;2.20;;
3911;SDS011;1971;51.778;10.330;2023-02-24T02:24:36;5.53;;;1.97;;
3911;SDS011;1971;51.778;10.330;2023-02-24T02:27:21;7.40;;;2.83;;
3911;SDS011;1971;51.778;10.330;2023-02-24T02:33:20;6.83;;;2.60;;
3911;SDS011;1971;51.778;10.330;2023-02-24T02:36:13;8.43;;;3.23;;
3911;SDS011;1971;51.778;10.330;2023-02-24T02:38:52;7.23;;;3.00;;
3911;SDS011;1971;51.778;10.330;2023-02-24T02:41:29;8.70;;;3.40;;
3911;SDS011;1971;51.778;10.330;2023-02-24T02:44:05;9.20;;;3.60;;
3911;SDS011;1971;51.778;10.330;2023-02-24T02:46:40;12.50;;;3.90;;
3911;SDS011;1971;51.778;10.330;2023-02-24T02:49:15;7.57;;;3.03;;
3911;SDS011;1971;51.778;10.330;2023-02-24T02:51:53;9.10;;;3.60;;
3911;SDS011;1971;51.778;10.330;2023-02-24T02:54:32;9.90;;;3.80;;
3911;SDS011;1971;51.778;10.330;2023-02-24T02:57:13;4.70;;;2.60;;
3911;SDS011;1971;51.778;10.330;2023-02-24T02:59:47;16.23;;;3.73;;
3911;SDS011;1971;51.778;10.330;2023-02-24T03:02:20;9.57;;;3.73;;
3911;SDS011;1971;51.778;10.330;2023-02-24T03:04:57;10.77;;;3.40;;
3911;SDS011;1971;51.778;10.330;2023-02-24T03:07:33;9.40;;;3.17;;
3911;SDS011;1971;51.778;10.330;2023-02-24T03:10:10;6.60;;;3.23;;
3911;SDS011;1971;51.778;10.330;2023-02-24T03:12:49;6.40;;;3.40;;
3911;SDS011;1971;51.778;10.330;2023-02-24T03:15:23;11.33;;;4.77;;
3911;SDS011;1971;51.778;10.330;2023-02-24T03:17:57;7.60;;;3.57;;
3911;SDS011;1971;51.778;10.330;2023-02-24T03:20:38;7.47;;;4.23;;
3911;SDS011;1971;51.778;10.330;2023-02-24T03:23:16;11.83;;;6.23;;
3911;SDS011;1971;51.778;10.330;2023-02-24T03:25:51;10.13;;;3.50;;
3911;SDS011;1971;51.778;10.330;2023-02-24T03:28:29;9.90;;;2.97;;
3911;SDS011;1971;51.778;10.330;2023-02-24T03:31:05;9.60;;;3.87;;
3911;SDS011;1971;51.778;10.330;2023-02-24T03:33:39;9.50;;;3.00;;
3911;SDS011;1971;51.778;10.330;2023-02-24T03:36:12;6.80;;;3.90;;
3911;SDS011;1971;51.778;10.330;2023-02-24T03:38:46;12.20;;;4.03;;
3911;SDS011;1971;51.778;10.330;2023-02-24T03:41:17;12.83;;;5.70;;
3911;SDS011;1971;51.778;10.330;2023-02-24T03:43:47;9.43;;;3.43;;
3911;SDS011;1971;51.778;10.330;2023-02-24T03:46:21;11.27;;;3.80;;
3911;SDS011;1971;51.778;10.330;2023-02-24T03:48:52;13.40;;;4.27;;
3911;SDS011;1971;51.778;10.330;2023-02-24T03:51:28;9.97;;;3.17;;
3911;SDS011;1971;51.778;10.330;2023-02-24T03:54:05;7.30;;;3.47;;
3911;SDS011;1971;51.778;10.330;2023-02-24T03:56:45;5.43;;;3.80;;
3911;SDS011;1971;51.778;10.330;2023-02-24T03:59:31;8.80;;;3.13;;
3911;SDS011;1971;51.778;10.330;2023-02-24T04:02:12;8.13;;;4.90;;
3911;SDS011;1971;51.778;10.330;2023-02-24T04:04:53;5.50;;;3.07;;
3911;SDS011;1971;51.778;10.330;2023-02-24T04:07:36;8.73;;;3.37;;
3911;SDS011;1971;51.778;10.330;2023-02-24T04:10:15;4.60;;;2.67;;
3911;SDS011;1971;51.778;10.330;2023-02-24T04:12:51;11.87;;;4.37;;
3911;SDS011;1971;51.778;10.330;2023-02-24T04:15:26;5.80;;;2.70;;
3911;SDS011;1971;51.778;10.330;2023-02-24T04:18:05;5.33;;;2.80;;
3911;SDS011;1971;51.778;10.330;2023-02-24T04:20:43;11.30;;;3.63;;
3911;SDS011;1971;51.778;10.330;2023-02-24T04:23:19;6.20;;;3.47;;
3911;SDS011;1971;51.778;10.330;2023-02-24T04:25:56;9.30;;;4.00;;
3911;SDS011;1971;51.778;10.330;2023-02-24T04:28:26;14.43;;;4.90;;
3911;SDS011;1971;51.778;10.330;2023-02-24T04:31:00;9.20;;;3.93;;
3911;SDS011;1971;51.778;10.330;2023-02-24T04:33:37;5.20;;;3.30;;
3911;SDS011;1971;51.778;10.330;2023-02-24T04:36:09;9.50;;;4.00;;
3911;SDS011;1971;51.778;10.330;2023-02-24T04:38:40;10.70;;;3.90;;
3911;SDS011;1971;51.778;10.330;2023-02-24T04:41:14;9.13;;;3.50;;
3911;SDS011;1971;51.778;10.330;2023-02-24T04:43:47;10.17;;;4.20;;
3911;SDS011;1971;51.778;10.330;2023-02-24T04:46:18;7.93;;;3.27;;
3911;SDS011;1971;51.778;10.330;2023-02-24T04:48:49;7.93;;;2.57;;
3911;SDS011;1971;51.778;10.330;2023-02-24T04:51:19;10.50;;;4.23;;
3911;SDS011;1971;51.778;10.330;2023-02-24T04:53:49;10.43;;;4.53;;
3911;SDS011;1971;51.778;10.330;2023-02-24T04:56:23;6.30;;;3.07;;
3911;SDS011;1971;51.778;10.330;2023-02-24T04:58:54;6.77;;;3.43;;
3911;SDS011;1971;51.778;10.330;2023-02-24T05:01:25;13.10;;;2.77;;
3911;SDS011;1971;51.778;10.330;2023-02-24T05:03:55;6.97;;;3.03;;
3911;SDS011;1971;51.778;10.330;2023-02-24T05:06:26;6.30;;;2.93;;
3911;SDS011;1971;51.778;10.330;2023-02-24T05:08:56;8.30;;;3.37;;
3911;SDS011;1971;51.778;10.330;2023-02-24T05:11:29;6.63;;;2.40;;
3911;SDS011;1971;51.778;10.330;2023-02-24T05:14:00;13.47;;;4.70;;
3911;SDS011;1971;51.778;10.330;2023-02-24T05:16:31;5.70;;;3.20;;
3911;SDS011;1971;51.778;10.330;2023-02-24T05:19:02;8.20;;;3.83;;
3911;SDS011;1971;51.778;10.330;2023-02-24T05:21:45;4.87;;;2.47;;
3911;SDS011;1971;51.778;10.330;2023-02-24T05:24:15;12.80;;;4.20;;
3911;SDS011;1971;51.778;10.330;2023-02-24T05:26:48;8.27;;;3.20;;
3911;SDS011;1971;51.778;10.330;2023-02-24T05:29:23;5.93;;;2.73;;
3911;SDS011;1971;51.778;10.330;2023-02-24T05:31:54;6.27;;;3.17;;
3911;SDS011;1971;51.778;10.330;2023-02-24T05:34:25;14.13;;;5.20;;
3911;SDS011;1971;51.778;10.330;2023-02-24T05:36:58;10.03;;;3.87;;
3911;SDS011;1971;51.778;10.330;2023-02-24T05:39:35;9.13;;;3.60;;
3911;SDS011;1971;51.778;10.330;2023-02-24T05:42:09;7.87;;;2.80;;
3911;SDS011;1971;51.778;10.330;2023-02-24T05:44:39;11.50;;;4.13;;
3911;SDS011;1971;51.778;10.330;2023-02-24T05:47:09;11.43;;;4.07;;
3911;SDS011;1971;51.778;10.330;2023-02-24T05:49:42;6.17;;;3.27;;
3911;SDS011;1971;51.778;10.330;2023-02-24T05:52:13;7.70;;;3.97;;
3911;SDS011;1971;51.778;10.330;2023-02-24T05:54:43;8.50;;;4.10;;
3911;SDS011;1971;51.778;10.330;2023-02-24T05:57:18;10.53;;;3.50;;
3911;SDS011;1971;51.778;10.330;2023-02-24T05:59:50;6.00;;;2.87;;
3911;SDS011;1971;51.778;10.330;2023-02-24T06:02:21;5.97;;;2.63;;
3911;SDS011;1971;51.778;10.330;2023-02-24T06:05:02;4.23;;;2.80;;
3911;SDS011;1971;51.778;10.330;2023-02-24T06:07:34;8.87;;;3.60;;
3911;SDS011;1971;51.778;10.330;2023-02-24T06:10:04;7.83;;;3.03;;
3911;SDS011;1971;51.778;10.330;2023-02-24T06:12:38;10.13;;;3.27;;
3911;SDS011;1971;51.778;10.330;2023-02-24T06:15:08;10.00;;;2.33;;
3911;SDS011;1971;51.778;10.330;2023-02-24T06:17:39;7.03;;;2.97;;
3911;SDS011;1971;51.778;10.330;2023-02-24T06:20:10;8.93;;;3.40;;
3911;SDS011;1971;51.778;10.330;2023-02-24T06:22:42;5.53;;;3.17;;
3911;SDS011;1971;51.778;10.330;2023-02-24T06:25:12;5.00;;;3.20;;
3911;SDS011;1971;51.778;10.330;2023-02-24T06:27:48;9.17;;;3.13;;
3911;SDS011;1971;51.778;10.330;2023-02-24T06:30:20;6.73;;;3.07;;
3911;SDS011;1971;51.778;10.330;2023-02-24T06:32:53;9.13;;;3.70;;
3911;SDS011;1971;51.778;10.330;2023-02-24T06:35:23;7.63;;;2.63;;
3911;SDS011;1971;51.778;10.330;2023-02-24T06:37:53;6.87;;;3.50;;
3911;SDS011;1971;51.778;10.330;2023-02-24T06:40:23;5.80;;;3.00;;
3911;SDS011;1971;51.778;10.330;2023-02-24T06:42:56;4.93;;;2.57;;
3911;SDS011;1971;51.778;10.330;2023-02-24T06:45:26;4.60;;;2.73;;
3911;SDS011;1971;51.778;10.330;2023-02-24T06:47:57;5.10;;;2.20;;
3911;SDS011;1971;51.778;10.330;2023-02-24T06:50:28;7.43;;;2.60;;
3911;SDS011;1971;51.778;10.330;2023-02-24T06:52:58;6.60;;;4.70;;
3911;SDS011;1971;51.778;10.330;2023-02-24T06:55:28;3.60;;;2.20;;
3911;SDS011;1971;51.778;10.330;2023-02-24T06:58:03;4.53;;;3.03;;
3911;SDS011;1971;51.778;10.330;2023-02-24T07:00:33;3.60;;;2.10;;
3911;SDS011;1971;51.778;10.330;2023-02-24T07:03:07;6.77;;;2.70;;
3911;SDS011;1971;51.778;10.330;2023-02-24T07:05:43;8.43;;;2.37;;
3911;SDS011;1971;51.778;10.330;2023-02-24T07:08:17;10.27;;;3.20;;
3911;SDS011;1971;51.778;10.330;2023-02-24T07:10:52;5.03;;;3.13;;
3911;SDS011;1971;51.778;10.330;2023-02-24T07:13:26;4.87;;;3.13;;
3911;SDS011;1971;51.778;10.330;2023-02-24T07:15:58;6.53;;;2.33;;
3911;SDS011;1971;51.778;10.330;2023-02-24T07:18:32;5.80;;;2.60;;
3911;SDS011;1971;51.778;10.330;2023-02-24T07:21:05;5.17;;;2.83;;
3911;SDS011;1971;51.778;10.330;2023-02-24T07:23:37;4.63;;;2.13;;
3911;SDS011;1971;51.778;10.330;2023-02-24T07:26:08;10.00;;;2.57;;
3911;SDS011;1971;51.778;10.330;2023-02-24T07:28:43;4.73;;;2.73;;
3911;SDS011;1971;51.778;10.330;2023-02-24T07:31:15;4.07;;;2.00;;
3911;SDS011;1971;51.778;10.330;2023-02-24T07:33:51;3.63;;;2.07;;
3911;SDS011;1971;51.778;10.330;2023-02-24T07:36:23;8.57;;;2.33;;
3911;SDS011;1971;51.778;10.330;2023-02-24T07:38:56;7.50;;;2.60;;
3911;SDS011;1971;51.778;10.330;2023-02-24T07:41:28;3.50;;;1.73;;
3911;SDS011;1971;51.778;10.330;2023-02-24T07:44:01;4.10;;;2.40;;
3911;SDS011;1971;51.778;10.330;2023-02-24T07:46:34;6.67;;;2.37;;
3911;SDS011;1971;51.778;10.330;2023-02-24T07:49:05;2.50;;;1.73;;
3911;SDS011;1971;51.778;10.330;2023-02-24T07:51:35;5.60;;;2.00;;
3911;SDS011;1971;51.778;10.330;2023-02-24T07:54:05;2.10;;;1.50;;
3911;SDS011;1971;51.778;10.330;2023-02-24T07:56:36;4.50;;;2.67;;
3911;SDS011;1971;51.778;10.330;2023-02-24T07:59:14;4.23;;;2.33;;
3911;SDS011;1971;51.778;10.330;2023-02-24T08:01:47;5.57;;;2.00;;
3911;SDS011;1971;51.778;10.330;2023-02-24T08:04:23;4.43;;;1.80;;
3911;SDS011;1971;51.778;10.330;2023-02-24T08:06:54;4.73;;;2.17;;
3911;SDS011;1971;51.778;10.330;2023-02-24T08:09:29;3.23;;;2.03;;
3911;SDS011;1971;51.778;10.330;2023-02-24T08:12:27;1.80;;;1.57;;
3911;SDS011;1971;51.778;10.330;2023-02-24T08:15:03;4.30;;;2.57;;
3911;SDS011;1971;51.778;10.330;2023-02-24T08:17:43;3.00;;;1.60;;
3911;SDS011;1971;51.778;10.330;2023-02-24T08:20:14;5.57;;;2.30;;
3911;SDS011;1971;51.778;10.330;2023-02-24T08:22:51;7.30;;;1.93;;
3911;SDS011;1971;51.778;10.330;2023-02-24T08:25:23;2.67;;;1.27;;
3911;SDS011;1971;51.778;10.330;2023-02-24T08:28:02;4.70;;;1.50;;
3911;SDS011;1971;51.778;10.330;2023-02-24T08:30:40;3.20;;;1.70;;
3911;SDS011;1971;51.778;10.330;2023-02-24T08:33:13;2.60;;;1.60;;
3911;SDS011;1971;51.778;10.330;2023-02-24T08:35:49;1.60;;;1.50;;
3911;SDS011;1971;51.778;10.330;2023-02-24T08:38:27;2.57;;;1.60;;
3911;SDS011;1971;51.778;10.330;2023-02-24T08:41:06;2.57;;;1.90;;
3911;SDS011;1971;51.778;10.330;2023-02-24T08:43:43;3.97;;;1.50;;
3911;SDS011;1971;51.778;10.330;2023-02-24T08:46:18;2.07;;;1.83;;
3911;SDS011;1971;51.778;10.330;2023-02-24T08:48:53;5.23;;;2.30;;
3911;SDS011;1971;51.778;10.330;2023-02-24T08:51:26;2.93;;;1.27;;
3911;SDS011;1971;51.778;10.330;2023-02-24T08:54:01;4.40;;;1.73;;
3911;SDS011;1971;51.778;10.330;2023-02-24T08:56:37;4.27;;;1.97;;
3911;SDS011;1971;51.778;10.330;2023-02-24T08:59:10;4.63;;;2.00;;
3911;SDS011;1971;51.778;10.330;2023-02-24T09:01:57;2.33;;;1.23;;
3911;SDS011;1971;51.778;10.330;2023-02-24T09:04:40;2.33;;;1.37;;
3911;SDS011;1971;51.778;10.330;2023-02-24T09:07:14;8.47;;;1.93;;
3911;SDS011;1971;51.778;10.330;2023-02-24T09:09:46;6.20;;;1.77;;
3911;SDS011;1971;51.778;10.330;2023-02-24T09:12:16;2.50;;;1.60;;
3911;SDS011;1971;51.778;10.330;2023-02-24T09:14:55;1.50;;;1.10;;
3911;SDS011;1971;51.778;10.330;2023-02-24T09:17:30;5.30;;;1.30;;
3911;SDS011;1971;51.778;10.330;2023-02-24T09:20:16;3.33;;;1.63;;
3911;SDS011;1971;51.778;10.330;2023-02-24T09:23:14;4.80;;;1.40;;
3911;SDS011;1971;51.778;10.330;2023-02-24T09:25:55;2.27;;;1.57;;
3911;SDS011;1971;51.778;10.330;2023-02-24T09:28:36;4.53;;;1.77;;
3911;SDS011;1971;51.778;10.330;2023-02-24T09:31:14;3.27;;;1.30;;
3911;SDS011;1971;51.778;10.330;2023-02-24T09:33:48;5.27;;;1.83;;
3911;SDS011;1971;51.778;10.330;2023-02-24T09:36:19;5.27;;;1.67;;
3911;SDS011;1971;51.778;10.330;2023-02-24T09:38:54;2.07;;;1.60;;
3911;SDS011;1971;51.778;10.330;2023-02-24T09:41:41;9.67;;;2.07;;
3911;SDS011;1971;51.778;10.330;2023-02-24T09:44:24;3.13;;;1.30;;
3911;SDS011;1971;51.778;10.330;2023-02-24T09:47:01;2.50;;;1.70;;
3911;SDS011;1971;51.778;10.330;2023-02-24T09:49:45;3.80;;;1.60;;
3911;SDS011;1971;51.778;10.330;2023-02-24T09:52:23;3.13;;;1.63;;
3911;SDS011;1971;51.778;10.330;2023-02-24T09:55:05;2.00;;;1.77;;
3911;SDS011;1971;51.778;10.330;2023-02-24T09:57:53;1.93;;;0.90;;
3911;SDS011;1971;51.778;10.330;2023-02-24T10:00:44;2.37;;;1.47;;
3911;SDS011;1971;51.778;10.330;2023-02-24T10:03:22;9.20;;;1.80;;
3911;SDS011;1971;51.778;10.330;2023-02-24T10:06:14;12.37;;;3.30;;
3911;SDS011;1971;51.778;10.330;2023-02-24T10:08:51;5.20;;;1.67;;
3911;SDS011;1971;51.778;10.330;2023-02-24T10:11:37;4.30;;;1.50;;
3911;SDS011;1971;51.778;10.330;2023-02-24T10:14:20;3.03;;;1.67;;
3911;SDS011;1971;51.778;10.330;2023-02-24T10:17:14;3.00;;;1.43;;
3911;SDS011;1971;51.778;10.330;2023-02-24T10:19:56;3.50;;;1.50;;
3911;SDS011;1971;51.778;10.330;2023-02-24T10:22:43;1.90;;;1.50;;
3911;SDS011;1971;51.778;10.330;2023-02-24T10:25:22;2.63;;;1.90;;
3911;SDS011;1971;51.778;10.330;2023-02-24T10:28:14;2.20;;;1.43;;
3911;SDS011;1971;51.778;10.330;2023-02-24T10:30:52;3.00;;;2.00;;
3911;SDS011;1971;51.778;10.330;2023-02-24T10:33:36;10.17;;;1.77;;
3911;SDS011;1971;51.778;10.330;2023-02-24T10:36:12;5.50;;;1.60;;
3911;SDS011;1971;51.778;10.330;2023-02-24T10:38:50;6.20;;;2.17;;
3911;SDS011;1971;51.778;10.330;2023-02-24T10:41:21;8.50;;;2.03;;
3911;SDS011;1971;51.778;10.330;2023-02-24T10:43:55;3.13;;;2.83;;
3911;SDS011;1971;51.778;10.330;2023-02-24T10:46:30;3.13;;;2.20;;
3911;SDS011;1971;51.778;10.330;2023-02-24T10:49:07;3.47;;;2.30;;
3911;SDS011;1971;51.778;10.330;2023-02-24T10:51:46;3.77;;;2.20;;
3911;SDS011;1971;51.778;10.330;2023-02-24T10:54:23;7.20;;;2.53;;
3911;SDS011;1971;51.778;10.330;2023-02-24T10:57:20;6.83;;;2.40;;
3911;SDS011;1971;51.778;10.330;2023-02-24T11:00:15;4.10;;;2.00;;
3911;SDS011;1971;51.778;10.330;2023-02-24T11:02:58;2.77;;;2.03;;
3911;SDS011;1971;51.778;10.330;2023-02-24T11:05:56;6.17;;;2.90;;
3911;SDS011;1971;51.778;10.330;2023-02-24T11:08:45;3.90;;;2.77;;
3911;SDS011;1971;51.778;10.330;2023-02-24T11:11:47;7.23;;;2.23;;
3911;SDS011;1971;51.778;10.330;2023-02-24T11:14:30;3.40;;;2.30;;
3911;SDS011;1971;51.778;10.330;2023-02-24T11:17:17;3.60;;;2.27;;
3911;SDS011;1971;51.778;10.330;2023-02-24T11:19:57;2.70;;;2.17;;
3911;SDS011;1971;51.778;10.330;2023-02-24T11:22:36;4.80;;;2.17;;
3911;SDS011;1971;51.778;10.330;2023-02-24T11:25:12;2.00;;;1.90;;
3911;SDS011;1971;51.778;10.330;2023-02-24T11:27:51;2.53;;;2.30;;
3911;SDS011;1971;51.778;10.330;2023-02-24T11:30:29;2.20;;;2.10;;
3911;SDS011;1971;51.778;10.330;2023-02-24T11:33:20;2.20;;;1.60;;
3911;SDS011;1971;51.778;10.330;2023-02-24T11:36:01;2.23;;;2.03;;
3911;SDS011;1971;51.778;10.330;2023-02-24T11:38:37;2.17;;;2.07;;
3911;SDS011;1971;51.778;10.330;2023-02-24T11:41:11;2.77;;;2.40;;
3911;SDS011;1971;51.778;10.330;2023-02-24T11:43:56;1.87;;;1.77;;
3911;SDS011;1971;51.778;10.330;2023-02-24T11:46:33;1.60;;;1.50;;
3911;SDS011;1971;51.778;10.330;2023-02-24T11:49:07;5.13;;;1.93;;
3911;SDS011;1971;51.778;10.330;2023-02-24T11:51:49;2.50;;;2.17;;
3911;SDS011;1971;51.778;10.330;2023-02-24T11:54:20;2.77;;;1.97;;
3911;SDS011;1971;51.778;10.330;2023-02-24T11:56:52;2.17;;;1.97;;
3911;SDS011;1971;51.778;10.330;2023-02-24T11:59:28;1.37;;;1.27;;
3911;SDS011;1971;51.778;10.330;2023-02-24T12:02:04;2.40;;;1.87;;
3911;SDS011;1971;51.778;10.330;2023-02-24T12:04:48;2.10;;;1.80;;
3911;SDS011;1971;51.778;10.330;2023-02-24T12:07:24;2.90;;;2.03;;
3911;SDS011;1971;51.778;10.330;2023-02-24T12:10:00;1.83;;;1.30;;
3911;SDS011;1971;51.778;10.330;2023-02-24T12:12:43;1.47;;;1.37;;
3911;SDS011;1971;51.778;10.330;2023-02-24T12:15:23;1.93;;;1.77;;
3911;SDS011;1971;51.778;10.330;2023-02-24T12:17:58;3.27;;;1.87;;
3911;SDS011;1971;51.778;10.330;2023-02-24T12:20:35;1.77;;;1.60;;
3911;SDS011;1971;51.778;10.330;2023-02-24T12:23:12;1.90;;;1.20;;
3911;SDS011;1971;51.778;10.330;2023-02-24T12:25:50;14.40;;;3.23;;
3911;SDS011;1971;51.778;10.330;2023-02-24T12:28:36;1.97;;;1.87;;
3911;SDS011;1971;51.778;10.330;2023-02-24T12:31:20;2.23;;;2.03;;
3911;SDS011;1971;51.778;10.330;2023-02-24T12:34:00;22.23;;;1.80;;
3911;SDS011;1971;51.778;10.330;2023-02-24T12:36:41;2.20;;;2.00;;
3911;SDS011;1971;51.778;10.330;2023-02-24T12:39:21;2.40;;;1.53;;
3911;SDS011;1971;51.778;10.330;2023-02-24T12:42:00;2.13;;;1.93;;
3911;SDS011;1971;51.778;10.330;2023-02-24T12:44:41;5.33;;;2.37;;
3911;SDS011;1971;51.778;10.330;2023-02-24T12:47:21;2.53;;;1.90;;
3911;SDS011;1971;51.778;10.330;2023-02-24T12:50:05;2.20;;;2.03;;
3911;SDS011;1971;51.778;10.330;2023-02-24T12:52:49;1.93;;;1.83;;
3911;SDS011;1971;51.778;10.330;2023-02-24T12:55:25;3.70;;;2.20;;
3911;SDS011;1971;51.778;10.330;2023-02-24T12:58:05;2.17;;;2.00;;
3911;SDS011;1971;51.778;10.330;2023-02-24T13:00:44;2.20;;;2.00;;
3911;SDS011;1971;51.778;10.330;2023-02-24T13:03:26;1.97;;;1.73;;
3911;SDS011;1971;51.778;10.330;2023-02-24T13:06:08;2.50;;;2.30;;
3911;SDS011;1971;51.778;10.330;2023-02-24T13:08:50;2.63;;;2.43;;
3911;SDS011;1971;51.778;10.330;2023-02-24T13:11:32;2.20;;;2.10;;
3911;SDS011;1971;51.778;10.330;2023-02-24T13:14:13;3.60;;;2.20;;
3911;SDS011;1971;51.778;10.330;2023-02-24T13:16:50;8.03;;;2.40;;
3911;SDS011;1971;51.778;10.330;2023-02-24T13:19:35;16.10;;;3.33;;
3911;SDS011;1971;51.778;10.330;2023-02-24T13:22:15;2.33;;;2.13;;
3911;SDS011;1971;51.778;10.330;2023-02-24T13:24:57;11.47;;;3.37;;
3911;SDS011;1971;51.778;10.330;2023-02-24T13:27:32;17.37;;;3.33;;
3911;SDS011;1971;51.778;10.330;2023-02-24T13:30:06;3.43;;;1.33;;
3911;SDS011;1971;51.778;10.330;2023-02-24T13:33:01;20.40;;;3.77;;
3911;SDS011;1971;51.778;10.330;2023-02-24T13:35:36;31.87;;;6.10;;
3911;SDS011;1971;51.778;10.330;2023-02-24T13:38:07;7.97;;;2.47;;
3911;SDS011;1971;51.778;10.330;2023-02-24T13:40:51;1.50;;;1.40;;
3911;SDS011;1971;51.778;10.330;2023-02-24T13:43:24;2.33;;;2.17;;
3911;SDS011;1971;51.778;10.330;2023-02-24T13:45:59;2.30;;;2.20;;
3911;SDS011;1971;51.778;10.330;2023-02-24T13:54:45;1.93;;;1.83;;
3911;SDS011;1971;51.778;10.330;2023-02-24T13:57:43;2.80;;;2.37;;
3911;SDS011;1971;51.778;10.330;2023-02-24T14:00:30;3.53;;;2.00;;
3911;SDS011;1971;51.778;10.330;2023-02-24T14:03:11;2.83;;;2.10;;
3911;SDS011;1971;51.778;10.330;2023-02-24T14:05:46;1.97;;;1.87;;
3911;SDS011;1971;51.778;10.330;2023-02-24T14:08:22;2.20;;;2.10;;
3911;SDS011;1971;51.778;10.330;2023-02-24T14:10:55;2.00;;;1.90;;
3911;SDS011;1971;51.778;10.330;2023-02-24T14:13:27;2.60;;;2.30;;
3911;SDS011;1971;51.778;10.330;2023-02-24T14:16:00;2.00;;;1.90;;
3911;SDS011;1971;51.778;10.330;2023-02-24T14:18:37;2.03;;;1.83;;
3911;SDS011;1971;51.778;10.330;2023-02-24T14:21:16;2.20;;;2.10;;
3911;SDS011;1971;51.778;10.330;2023-02-24T14:23:59;2.60;;;2.40;;
3911;SDS011;1971;51.778;10.330;2023-02-24T14:26:43;1.67;;;1.57;;
3911;SDS011;1971;51.778;10.330;2023-02-24T14:29:26;1.93;;;1.83;;
3911;SDS011;1971;51.778;10.330;2023-02-24T14:31:58;1.70;;;1.60;;
3911;SDS011;1971;51.778;10.330;2023-02-24T14:34:29;2.80;;;1.83;;
3911;SDS011;1971;51.778;10.330;2023-02-24T14:37:01;1.70;;;1.60;;
3911;SDS011;1971;51.778;10.330;2023-02-24T14:39:36;1.60;;;1.50;;
3911;SDS011;1971;51.778;10.330;2023-02-24T14:42:10;1.77;;;1.67;;
3911;SDS011;1971;51.778;10.330;2023-02-24T14:44:42;2.40;;;2.20;;
3911;SDS011;1971;51.778;10.330;2023-02-24T14:47:13;1.90;;;1.50;;
3911;SDS011;1971;51.778;10.330;2023-02-24T14:49:52;1.70;;;1.60;;
3911;SDS011;1971;51.778;10.330;2023-02-24T14:52:30;2.93;;;2.10;;
3911;SDS011;1971;51.778;10.330;2023-02-24T14:55:06;2.10;;;1.73;;
3911;SDS011;1971;51.778;10.330;2023-02-24T14:57:42;1.40;;;1.30;;
3911;SDS011;1971;51.778;10.330;2023-02-24T15:00:19;1.60;;;1.50;;
3911;SDS011;1971;51.778;10.330;2023-02-24T15:02:53;1.50;;;1.40;;
3911;SDS011;1971;51.778;10.330;2023-02-24T15:05:30;2.23;;;1.70;;
3911;SDS011;1971;51.778;10.330;2023-02-24T15:08:00;2.30;;;2.20;;
3911;SDS011;1971;51.778;10.330;2023-02-24T15:10:34;1.10;;;1.10;;
3911;SDS011;1971;51.778;10.330;2023-02-24T15:13:06;2.33;;;1.90;;
3911;SDS011;1971;51.778;10.330;2023-02-24T15:15:43;1.57;;;1.47;;
3911;SDS011;1971;51.778;10.330;2023-02-24T15:18:17;1.63;;;1.53;;
3911;SDS011;1971;51.778;10.330;2023-02-24T15:20:58;10.57;;;3.13;;
3911;SDS011;1971;51.778;10.330;2023-02-24T15:23:30;15.07;;;3.17;;
3911;SDS011;1971;51.778;10.330;2023-02-24T15:26:03;171.83;;;16.00;;
3911;SDS011;1971;51.778;10.330;2023-02-24T15:28:35;342.20;;;27.83;;
3911;SDS011;1971;51.778;10.330;2023-02-24T15:31:07;452.03;;;35.33;;
3911;SDS011;1971;51.778;10.330;2023-02-24T15:33:45;393.33;;;35.17;;
3911;SDS011;1971;51.778;10.330;2023-02-24T15:36:24;338.27;;;26.63;;
3911;SDS011;1971;51.778;10.330;2023-02-24T15:38:57;342.23;;;28.17;;
3911;SDS011;1971;51.778;10.330;2023-02-24T15:41:40;801.43;;;58.03;;
3911;SDS011;1971;51.778;10.330;2023-02-24T15:44:22;840.33;;;58.53;;
3911;SDS011;1971;51.778;10.330;2023-02-24T15:46:54;639.37;;;46.70;;
3911;SDS011;1971;51.778;10.330;2023-02-24T15:49:25;749.53;;;53.37;;
3911;SDS011;1971;51.778;10.330;2023-02-24T15:51:55;706.67;;;50.80;;
3911;SDS011;1971;51.778;10.330;2023-02-24T15:54:31;625.47;;;46.07;;
3911;SDS011;1971;51.778;10.330;2023-02-24T15:57:05;775.30;;;53.77;;
3911;SDS011;1971;51.778;10.330;2023-02-24T15:59:38;798.23;;;56.53;;
3911;SDS011;1971;51.778;10.330;2023-02-24T16:02:10;872.17;;;61.37;;